CheckWX is a tool to help pilots better visualize weather data.  It is not intended as a substitute for an official pre-flight weather briefing.

16:26:32 UTC

KLYH TAF
Lynchburg Regional / Preston Glenn Field Airport
Lynchburg, Virginia, USA
KLYH 221140Z 2212/2312 VRB03KT P6SM FEW060 SCT200 FM221600 24007KT P6SM VCSH BKN040 FM222100 26009KT 6SM SHRA VCTS BKN050CB FM230200 21003KT 5SM BR SCT010 BKN050 FM230900 25006KT 4SM -RA BR SCT005 OVC010

Jul-22@
12:00 UTC

Jul-22 @ 12:00 UTC

Jul-22@
16:00 UTC

Jul-22 @ 16:00 UTC

KLYH 221140Z 2212/2312 VRB03KT P6SM FEW060 SCT200

Expired

Wind
  • Variable at 3 KTS
Cloud Levels
  • Few at 6,000' AGL
  • Scattered at 20,000' AGL

Jul-22@
16:00 UTC

Jul-22 @ 16:00 UTC

Jul-22@
21:00 UTC

Jul-22 @ 21:00 UTC

FM221600 24007KT P6SM VCSH BKN040

From

From Standard forecast or significant change

Wind
  • 240° at 7 KTS
Cloud Levels
  • Broken at 4,000' AGL

Jul-22@
21:00 UTC

Jul-22 @ 21:00 UTC

Jul-23@
02:00 UTC

Jul-23 @ 02:00 UTC

FM222100 26009KT 6SM SHRA VCTS BKN050CB

From

From Standard forecast or significant change

Wind
  • 260° at 9 KTS
Conditions
Rain, Area Thunderstorm
Cloud Levels
  • Broken at 5,000' AGL

Jul-23@
02:00 UTC

Jul-23 @ 02:00 UTC

Jul-23@
09:00 UTC

Jul-23 @ 09:00 UTC

FM230200 21003KT 5SM BR SCT010 BKN050

From

From Standard forecast or significant change

Wind
  • 210° at 3 KTS
Conditions
Mist
Cloud Levels
  • Scattered at 1,000' AGL
  • Broken at 5,000' AGL

Jul-23@
09:00 UTC

Jul-23 @ 09:00 UTC

Jul-23@
12:00 UTC

Jul-23 @ 12:00 UTC

FM230900 25006KT 4SM -RA BR SCT005 OVC010

From

From Standard forecast or significant change

Wind
  • 250° at 6 KTS
Conditions
Light Rain, Mist
Cloud Levels
  • Scattered at 500' AGL
  • Overcast at 1,000' AGL